高松空港の過去48時間の天気

高松空港 (Takamatsu)

現在時刻: 9/17 20:23 JST (9/17 11:23 UTC) 以下の時間は現地時間です。

過去48時間のMETAR気象情報
時間 風向 風速(m/s) 視程 気温(℃) 湿度(%) 気圧(hPa) 天気現象
17 20:00 3 10km以上 23 83 1011
17 19:00 3 10km以上 24 78 1010
17 18:00 2 10km以上 25 74 1010
17 17:00 3 10km以上 27 62 1010
17 16:00 3 10km以上 28 58 1009
17 15:00 2 10km以上 28 62 1009
17 14:00 不定 1 10km以上 28 58 1009
17 13:00 不定 2 10km以上 28 58 1010
17 12:00 2 10km以上 28 62 1010
17 11:00 不定 2 10km以上 26 65 1011
17 10:00 東南東 2 10km以上 26 65 1011
17 09:00 不定 1 10km以上 25 69 1011
17 08:00 南東 2 10km以上 23 83 1010
17 07:00 南東 3 10km以上 20 94 1010
17 06:20 南東 4 10km以上 19 94 1010
16 21:00 北北東 2 10km以上 24 69 1007
16 20:00 3 10km以上 24 74 1007
16 19:00 4 10km以上 25 69 1006
16 18:00 4 10km以上 26 65 1006
16 17:00 5 10km以上 27 62 1005
16 16:00 4 10km以上 28 62 1004
16 15:00 北北西 4 10km以上 28 66 1004
16 14:00 西北西 4 10km以上 28 62 1004
16 13:00 西 3 10km以上 29 62 1005
16 12:00 不定 2 10km以上 29 62 1005
16 11:00 西 3 10km以上 28 62 1006
16 10:00 西 3 10km以上 27 70 1006
16 09:00 西北西 3 10km以上 26 70 1006
16 08:00 西 3 10km以上 26 74 1006
16 07:00 南南西 2 10km以上 23 89 1006
16 06:20 南南西 3 10km以上 22 88 1006
15 21:00 南東 3 10km以上 25 78 1007
RJOT 171100Z 09005KT 060V130 9999 FEW025 SCT040 23/20 Q1011
RJOT 171000Z 10006KT 050V140 9999 FEW025 SCT050 24/20 Q1010
RJOT 170900Z 10003KT 080V150 9999 FEW025 25/20 Q1010
RJOT 170800Z 09006KT 060V120 9999 FEW025 BKN050 27/19 Q1010
RJOT 170700Z 09005KT 9999 FEW025 SCT040 28/19 Q1009
RJOT 170600Z 10004KT 060V140 9999 FEW025 SCT040 28/20 Q1009
RJOT 170500Z VRB02KT 9999 FEW025 SCT035 28/19 Q1009
RJOT 170400Z VRB04KT 9999 FEW025 SCT035 28/19 Q1010
RJOT 170300Z 10004KT 060V170 9999 FEW025 BKN035 28/20 Q1010
RJOT 170200Z VRB03KT 9999 FEW025 BKN035 26/19 Q1011
RJOT 170100Z 11004KT 060V170 9999 FEW025 SCT030 26/19 Q1011
RJOT 170000Z VRB01KT 9999 FEW020 25/19 Q1011
RJOT 162300Z 13003KT 9999 FEW020 SCT035 23/20 Q1010
RJOT 162200Z 14006KT 9999 FEW020 20/19 Q1010
RJOT 162120Z 14007KT 9999 FEW020 19/18 Q1010 RMK 1CU020 A2983
RJOT 161200Z 02004KT 330V060 9999 FEW030 BKN060 24/18 Q1007
RJOT 161100Z 36006KT 320V050 9999 FEW030 BKN060 24/19 Q1007
RJOT 161000Z 36007KT 9999 FEW030 BKN060 25/19 Q1006
RJOT 160900Z 01007KT 9999 FEW030 BKN050 26/19 Q1006
RJOT 160800Z 35009KT 320V020 9999 FEW030 SCT040 BKN050 27/19 Q1005
RJOT 160700Z 36008KT 310V030 9999 FEW030 SCT040 BKN060 28/20 Q1004
RJOT 160600Z 33008KT 300V360 9999 FEW030 SCT040 BKN060 28/21 Q1004
RJOT 160500Z 30007KT 270V330 9999 FEW030 BKN040 28/20 Q1004
RJOT 160400Z 26005KT 220V010 9999 FEW030 SCT040 29/21 Q1005
RJOT 160300Z VRB04KT 9999 FEW030 BKN040 29/21 Q1005
RJOT 160200Z 28005KT 240V330 9999 FEW025 SCT035 28/20 Q1006
RJOT 160100Z 28006KT 9999 FEW025 SCT030 27/21 Q1006
RJOT 160000Z 29005KT 260V330 9999 FEW025 SCT030 26/20 Q1006
RJOT 152300Z 26006KT 9999 FEW025 SCT045 26/21 Q1006
RJOT 152200Z 21004KT 9999 FEW020 23/21 Q1006
RJOT 152120Z 21006KT 9999 FEW020 22/20 Q1006 RMK 1CU020 A2972
RJOT 151200Z 14006KT 9999 FEW040 BKN070 25/21 Q1007